Winfield, Missouri
Current Conditions -  °F | °C
As of 9:10 AM on Thursday 18 Dec 2014 (Local Time) from KSET Reporting Station
Haze Haze  
Wind Chill: 24°   Ceiling: 2500
Heat Index: 29°   Visibility: 5mi
Dew Point: 24°   Wind: 5mph
Humidity: 82%   Direction: 50°NE
Pressure: 30.31"   Gusts: NA
Location:  39°N, 90.74°W
Report Text: KSET 181510Z AUTO 05004KT 5SM HZ BKN025 OVC047 M02/M04 A3031 RMK AO2 T10171044
Loading
Personal Weather Stations






























Interactive Weather Map New forecast layout! Learn more

10-Day Weather Forecast

Advertisements
Track Severe Weather on mobile